Terminal Aerodrome Forecast
Issued by NWS

Home | Current Version | Previous Version | Text Only | Print | Product List | Glossary On
Versions: 1 2 3 4 5 6 7 8 9 10 11 12 13 14 15 16
000
FTUS45 KABQ 250500
TAFLVS
TAF
KLVS 250525Z 2506/2606 22011KT P6SM SCT250
     FM251600 22015G25KT P6SM BKN200
     FM251900 23026G36KT P6SM BKN200
     FM260200 22018G28KT P6SM BKN200
     FM260500 21015KT P6SM BKN200=

USA.gov is the U.S. government's official web portal to all federal, state and local government web resources and services.